Time;durP1;ratioP1;P1;durP2;ratioP2;P2;SDS_P1;SDS_P2;PMS_P1;PMS_P2;Temp;Humidity;BMP_temperature;BMP_pressure;BME280_temperature;BME280_humidity;BME280_pressure;Samples;Min_cycle;Max_cycle;Signal;HPM_P1;HPM_P2
2021/08/27 00:01:28;;;;;;;9.50;3.50;;;13.40;99.90;;;;;;5100732;28;20400;-68
2021/08/27 00:03:54;;;;;;;7.35;3.58;;;13.40;99.90;;;;;;5100902;28;20021;-68
2021/08/27 00:06:20;;;;;;;10.65;4.05;;;13.50;99.90;;;;;;5100383;28;20035;-69
2021/08/27 00:08:46;;;;;;;8.90;5.10;;;13.20;99.90;;;;;;5100872;28;20480;-68
2021/08/27 00:11:13;;;;;;;6.10;3.47;;;13.30;99.90;;;;;;5100755;28;20020;-68
2021/08/27 00:13:44;;;;;;;5.03;3.60;;;13.40;99.90;;;;;;5100534;28;20078;-68
2021/08/27 00:16:10;;;;;;;8.45;4.10;;;13.30;99.90;;;;;;5100332;28;20507;-68
2021/08/27 00:18:36;;;;;;;7.90;3.40;;;13.30;99.90;;;;;;5100590;28;20024;-69
2021/08/27 00:21:02;;;;;;;12.35;4.18;;;13.20;99.90;;;;;;5100086;28;20020;-68
2021/08/27 00:23:28;;;;;;;8.82;3.50;;;13.20;99.90;;;;;;5100218;28;20095;-68
2021/08/27 00:25:54;;;;;;;5.78;2.88;;;13.10;99.90;;;;;;5100277;28;20026;-68
2021/08/27 00:28:20;;;;;;;7.30;3.50;;;13.00;99.90;;;;;;5100271;28;20020;-69
2021/08/27 00:30:46;;;;;;;5.15;3.00;;;13.20;99.90;;;;;;5100430;28;20031;-68
2021/08/27 00:33:12;;;;;;;8.57;3.75;;;13.10;99.90;;;;;;5100017;28;20484;-68
2021/08/27 00:35:39;;;;;;;5.38;2.90;;;13.00;99.90;;;;;;5099797;28;20127;-68
2021/08/27 00:38:05;;;;;;;7.47;3.65;;;12.90;99.90;;;;;;5100201;28;20036;-68
2021/08/27 00:40:31;;;;;;;8.40;3.75;;;12.90;99.90;;;;;;5100011;28;20035;-68
2021/08/27 00:42:57;;;;;;;5.32;3.38;;;12.70;99.90;;;;;;5100038;28;20095;-68
2021/08/27 00:45:24;;;;;;;6.55;3.90;;;13.10;99.90;;;;;;5099964;28;20034;-68
2021/08/27 00:47:50;;;;;;;8.48;3.90;;;12.90;99.90;;;;;;5100026;28;20392;-69
2021/08/27 00:50:16;;;;;;;6.57;3.03;;;12.70;99.90;;;;;;5099799;28;20024;-68
2021/08/27 00:52:42;;;;;;;6.70;3.97;;;12.90;99.90;;;;;;5099975;28;20027;-69
2021/08/27 00:55:08;;;;;;;6.97;3.40;;;12.80;99.90;;;;;;5099683;28;20028;-68
2021/08/27 00:57:35;;;;;;;5.93;2.90;;;12.90;99.90;;;;;;5099529;28;20039;-68
2021/08/27 01:00:03;;;;;;;7.55;2.60;;;12.70;99.90;;;;;;5099775;28;20031;-68
2021/08/27 01:02:30;;;;;;;12.00;3.67;;;12.60;99.90;;;;;;5099739;28;20095;-68
2021/08/27 01:04:57;;;;;;;5.47;3.08;;;12.50;99.90;;;;;;5099296;28;20032;-68
2021/08/27 01:07:50;;;;;;;6.00;3.03;;;12.90;99.90;;;;;;5099340;28;20449;-68
2021/08/27 01:10:24;;;;;;;6.57;3.45;;;12.70;99.90;;;;;;5099501;28;20384;-68
2021/08/27 01:13:12;;;;;;;8.45;3.47;;;12.40;99.90;;;;;;5099525;28;20433;-68
2021/08/27 01:16:04;;;;;;;5.13;2.80;;;12.70;99.90;;;;;;5099434;28;20476;-68
2021/08/27 01:18:54;;;;;;;9.95;4.05;;;12.50;99.90;;;;;;5099285;28;20020;-68
2021/08/27 01:22:01;;;;;;;9.65;4.32;;;12.50;99.90;;;;;;5098857;28;20118;-68
2021/08/27 01:24:29;;;;;;;4.60;3.03;;;12.60;99.90;;;;;;5099017;28;20016;-68
2021/08/27 01:26:59;;;;;;;7.03;3.30;;;12.40;99.90;;;;;;5099147;28;20495;-69
2021/08/27 01:30:02;;;;;;;10.80;3.72;;;12.50;99.90;;;;;;5099140;28;20027;-68
2021/08/27 01:32:43;;;;;;;10.70;3.55;;;12.30;99.90;;;;;;5098747;28;20027;-69
2021/08/27 01:35:11;;;;;;;10.35;3.35;;;12.40;99.90;;;;;;5098817;28;20024;-68
2021/08/27 01:37:42;;;;;;;7.90;3.35;;;12.20;99.90;;;;;;5098763;28;20078;-68
2021/08/27 01:40:09;;;;;;;5.75;3.42;;;12.20;99.90;;;;;;5098872;28;20020;-68
2021/08/27 01:42:36;;;;;;;7.63;3.15;;;12.20;99.90;;;;;;5098816;28;20019;-68
2021/08/27 01:45:04;;;;;;;8.80;5.07;;;12.40;99.90;;;;;;5098891;28;20144;-68
2021/08/27 01:47:32;;;;;;;4.70;3.30;;;12.20;99.90;;;;;;5098533;28;20040;-69
2021/08/27 01:50:00;;;;;;;7.25;3.22;;;12.20;99.90;;;;;;5098549;28;20032;-69
2021/08/27 01:52:27;;;;;;;9.02;3.67;;;12.30;99.90;;;;;;5098592;28;20381;-69
2021/08/27 01:54:56;;;;;;;9.38;4.15;;;12.10;99.90;;;;;;5098529;28;20035;-69
2021/08/27 01:57:24;;;;;;;6.68;3.33;;;12.10;99.90;;;;;;5098244;28;20055;-69
2021/08/27 01:59:50;;;;;;;11.63;3.83;;;12.20;99.90;;;;;;5098544;28;20020;-69
2021/08/27 02:02:18;;;;;;;7.97;3.22;;;12.30;99.90;;;;;;5097128;28;20023;-69
2021/08/27 02:04:49;;;;;;;6.75;3.13;;;12.10;99.90;;;;;;5098321;28;20496;-69
2021/08/27 02:07:16;;;;;;;8.02;3.42;;;12.20;99.90;;;;;;5098636;28;20024;-69
2021/08/27 02:09:43;;;;;;;6.72;3.13;;;12.20;99.90;;;;;;5098232;28;20136;-69
2021/08/27 02:12:09;;;;;;;3.83;3.22;;;11.90;99.90;;;;;;5098326;28;20016;-69
2021/08/27 02:14:38;;;;;;;8.77;3.30;;;12.00;99.90;;;;;;5098267;28;20477;-69
2021/08/27 02:17:08;;;;;;;7.72;3.95;;;11.90;99.90;;;;;;5098216;28;20546;-69
2021/08/27 02:19:36;;;;;;;4.70;2.58;;;11.90;99.90;;;;;;5098137;28;20016;-69
2021/08/27 02:22:05;;;;;;;5.03;3.80;;;12.00;99.90;;;;;;5097962;28;20077;-69
2021/08/27 02:24:44;;;;;;;6.35;3.22;;;11.90;99.90;;;;;;5097884;28;20024;-69
2021/08/27 02:27:10;;;;;;;3.78;3.00;;;12.60;99.90;;;;;;5097984;28;20023;-69
2021/08/27 02:29:39;;;;;;;7.03;3.08;;;12.00;99.90;;;;;;5097861;28;20024;-69
2021/08/27 02:32:08;;;;;;;8.90;3.05;;;11.80;99.90;;;;;;5097802;28;20448;-69
2021/08/27 02:34:37;;;;;;;6.88;3.20;;;11.90;99.90;;;;;;5097685;28;20031;-69
2021/08/27 02:37:05;;;;;;;9.27;3.20;;;12.00;99.90;;;;;;5097774;28;20024;-69
2021/08/27 02:39:30;;;;;;;11.50;3.17;;;11.90;99.90;;;;;;5097598;28;20499;-69
2021/08/27 02:41:57;;;;;;;6.07;3.08;;;11.90;99.90;;;;;;5097836;28;20034;-69
2021/08/27 02:44:25;;;;;;;3.17;2.05;;;11.90;99.90;;;;;;5097577;28;20097;-69
2021/08/27 02:46:51;;;;;;;7.32;3.20;;;11.70;99.90;;;;;;5097613;28;20046;-69
2021/08/27 02:49:17;;;;;;;4.10;2.47;;;11.90;99.90;;;;;;5097582;28;20020;-69
2021/08/27 02:52:06;;;;;;;6.63;2.95;;;12.20;99.90;;;;;;5097448;28;20106;-69
2021/08/27 02:54:39;;;;;;;11.00;3.67;;;11.90;99.90;;;;;;5091730;28;20047;-69
2021/08/27 02:57:05;;;;;;;7.32;3.10;;;12.10;99.90;;;;;;5097209;28;20052;-69
2021/08/27 02:59:32;;;;;;;8.02;3.25;;;11.90;99.90;;;;;;5097506;28;20031;-69
2021/08/27 03:02:02;;;;;;;8.18;3.10;;;11.90;99.90;;;;;;5097207;28;20152;-69
2021/08/27 03:05:16;;;;;;;12.85;3.33;;;12.20;99.90;;;;;;5097444;28;20061;-69
2021/08/27 03:07:46;;;;;;;4.15;2.95;;;11.90;99.90;;;;;;5088471;28;20032;-68
2021/08/27 03:10:21;;;;;;;7.53;3.13;;;12.00;99.90;;;;;;5097036;28;20016;-69
2021/08/27 03:13:16;;;;;;;6.88;2.92;;;11.80;99.90;;;;;;5097318;28;20024;-69
2021/08/27 03:16:04;;;;;;;7.35;3.03;;;12.20;99.90;;;;;;5095936;28;20581;-69
2021/08/27 03:18:54;;;;;;;10.52;3.50;;;12.30;99.90;;;;;;5097024;28;20027;-69
2021/08/27 03:21:45;;;;;;;7.68;2.83;;;12.10;99.90;;;;;;5091284;28;20050;-69
2021/08/27 03:24:31;;;;;;;10.13;3.63;;;11.90;99.90;;;;;;5097146;28;20020;-69
2021/08/27 03:27:04;;;;;;;4.18;2.45;;;11.80;99.90;;;;;;5096978;28;20062;-69
2021/08/27 03:29:36;;;;;;;6.88;2.90;;;11.90;99.90;;;;;;5096781;28;20361;-69
2021/08/27 03:32:04;;;;;;;6.30;3.65;;;11.90;99.90;;;;;;5095026;28;20113;-69
2021/08/27 03:34:30;;;;;;;9.32;3.00;;;11.80;99.90;;;;;;5096685;28;20065;-69
2021/08/27 03:37:01;;;;;;;8.95;3.50;;;11.70;99.90;;;;;;5096721;28;20109;-69
2021/08/27 03:39:28;;;;;;;8.18;3.28;;;11.70;99.90;;;;;;5096614;28;20472;-69
2021/08/27 03:41:55;;;;;;;7.57;2.80;;;11.70;99.90;;;;;;5096857;28;20051;-68
2021/08/27 03:44:21;;;;;;;5.80;2.78;;;11.70;99.90;;;;;;5096733;28;20020;-69
2021/08/27 03:46:48;;;;;;;5.70;3.13;;;11.50;99.90;;;;;;5096869;28;20039;-69
2021/08/27 03:49:16;;;;;;;6.80;2.72;;;11.80;99.90;;;;;;5096836;28;20016;-69
2021/08/27 03:51:42;;;;;;;4.82;2.45;;;11.80;99.90;;;;;;5095293;28;20020;-69
2021/08/27 03:54:09;;;;;;;6.45;4.13;;;11.30;99.90;;;;;;5096474;28;20103;-69
2021/08/27 03:56:36;;;;;;;4.00;2.90;;;11.50;99.90;;;;;;5096492;28;20068;-69
2021/08/27 03:59:03;;;;;;;5.70;3.10;;;11.70;99.90;;;;;;5096579;28;20466;-69
2021/08/27 04:01:32;;;;;;;8.57;3.42;;;11.60;99.90;;;;;;5096547;28;20021;-69
2021/08/27 04:03:58;;;;;;;8.80;3.38;;;11.60;99.90;;;;;;5096426;28;20027;-69
2021/08/27 04:06:24;;;;;;;6.32;3.20;;;11.70;99.90;;;;;;5096411;28;20025;-69
2021/08/27 04:08:49;;;;;;;6.18;3.03;;;11.80;99.90;;;;;;5096425;28;20078;-69
2021/08/27 04:11:17;;;;;;;5.20;2.90;;;11.70;99.90;;;;;;5095298;28;20063;-69
2021/08/27 04:13:44;;;;;;;8.38;3.63;;;11.40;99.90;;;;;;5075331;28;20025;-69
2021/08/27 04:16:10;;;;;;;6.68;2.90;;;11.60;99.90;;;;;;5089595;28;20063;-69
2021/08/27 04:18:36;;;;;;;11.45;3.55;;;11.60;99.90;;;;;;5096455;28;20527;-69
2021/08/27 04:21:02;;;;;;;6.80;3.63;;;11.60;99.90;;;;;;5096381;28;20028;-69
2021/08/27 04:23:28;;;;;;;6.57;3.45;;;11.80;99.90;;;;;;5096258;28;20019;-69
2021/08/27 04:25:54;;;;;;;7.25;2.80;;;11.50;99.90;;;;;;5096271;28;20472;-69
2021/08/27 04:28:20;;;;;;;11.05;3.35;;;11.80;99.90;;;;;;5096510;28;20021;-69
2021/08/27 04:30:46;;;;;;;8.10;2.90;;;11.50;99.90;;;;;;5096424;28;20025;-69
2021/08/27 04:33:12;;;;;;;8.98;4.10;;;11.80;99.90;;;;;;5096253;28;20027;-69
2021/08/27 04:35:38;;;;;;;6.85;3.53;;;11.70;99.90;;;;;;5096040;28;20042;-69
2021/08/27 04:38:04;;;;;;;10.07;3.92;;;11.80;99.90;;;;;;5096400;28;20020;-69
2021/08/27 04:40:30;;;;;;;7.60;3.42;;;11.70;99.90;;;;;;5096216;28;20020;-69
2021/08/27 04:42:55;;;;;;;10.00;3.42;;;11.70;99.90;;;;;;5096559;28;20086;-69
2021/08/27 04:45:21;;;;;;;8.55;4.15;;;11.90;99.90;;;;;;5099970;28;20103;-69
2021/08/27 04:47:47;;;;;;;4.25;3.05;;;11.60;99.90;;;;;;5098751;28;20055;-69
2021/08/27 04:50:14;;;;;;;9.77;3.40;;;11.50;99.90;;;;;;5099744;28;20035;-69
2021/08/27 04:52:40;;;;;;;12.32;4.03;;;11.50;99.90;;;;;;5099805;28;20028;-69
2021/08/27 04:55:06;;;;;;;7.97;3.47;;;11.60;99.90;;;;;;5098351;28;20036;-69
2021/08/27 04:57:32;;;;;;;5.63;3.38;;;11.70;99.90;;;;;;5099552;28;20044;-69
2021/08/27 04:59:58;;;;;;;12.05;4.00;;;11.60;99.90;;;;;;5099648;28;20016;-69
2021/08/27 05:02:24;;;;;;;12.00;4.00;;;11.50;99.90;;;;;;5099802;28;20472;-69
2021/08/27 05:04:49;;;;;;;12.50;4.28;;;11.50;99.90;;;;;;5099291;28;20107;-69
2021/08/27 05:07:15;;;;;;;5.78;2.78;;;11.30;99.90;;;;;;5098423;28;20028;-69
2021/08/27 05:09:41;;;;;;;9.50;4.03;;;11.40;99.90;;;;;;5099470;28;20028;-69
2021/08/27 05:12:07;;;;;;;5.95;3.30;;;11.70;99.90;;;;;;5094796;28;20110;-68
2021/08/27 05:14:33;;;;;;;8.60;4.00;;;11.60;99.90;;;;;;5098862;28;20024;-69
2021/08/27 05:17:00;;;;;;;5.63;3.67;;;11.60;99.90;;;;;;5100713;28;20399;-69
2021/08/27 05:19:26;;;;;;;9.48;3.63;;;11.30;99.90;;;;;;5097567;28;20019;-69
2021/08/27 05:21:51;;;;;;;7.35;2.63;;;11.60;99.90;;;;;;5099182;28;20016;-69
2021/08/27 05:24:17;;;;;;;10.00;3.42;;;11.30;99.90;;;;;;5099055;28;20028;-69
2021/08/27 05:26:43;;;;;;;7.80;3.97;;;11.50;99.90;;;;;;5097519;28;20476;-69
2021/08/27 05:29:09;;;;;;;6.32;4.53;;;11.20;99.90;;;;;;5107442;28;20027;-69
2021/08/27 05:31:35;;;;;;;15.13;4.43;;;11.30;99.90;;;;;;5099006;28;20016;-69
2021/08/27 05:34:01;;;;;;;8.02;4.05;;;11.10;99.90;;;;;;5098502;28;20032;-69
2021/08/27 05:36:27;;;;;;;7.38;3.90;;;11.20;99.90;;;;;;5097481;28;20028;-69
2021/08/27 05:38:53;;;;;;;7.13;3.22;;;11.10;99.90;;;;;;5098596;28;20028;-68
2021/08/27 05:41:19;;;;;;;5.32;3.08;;;11.50;99.90;;;;;;5098934;28;20081;-69
2021/08/27 05:43:45;;;;;;;4.53;2.47;;;11.10;99.90;;;;;;5099116;28;20023;-69
2021/08/27 05:46:11;;;;;;;6.28;2.85;;;11.60;99.90;;;;;;5099025;28;20028;-69
2021/08/27 05:48:37;;;;;;;5.13;2.67;;;11.60;99.90;;;;;;5098852;28;20039;-69
2021/08/27 05:51:03;;;;;;;4.50;2.13;;;11.40;99.90;;;;;;5098323;28;20028;-69
2021/08/27 05:53:29;;;;;;;4.55;3.33;;;11.40;99.90;;;;;;5098491;28;20020;-69
2021/08/27 05:55:55;;;;;;;7.72;3.25;;;11.60;99.90;;;;;;5098261;28;20499;-69
2021/08/27 05:58:21;;;;;;;5.80;3.97;;;11.50;99.90;;;;;;5096962;28;20062;-69
2021/08/27 06:00:50;;;;;;;9.90;3.78;;;11.70;99.90;;;;;;5098477;28;20017;-69
2021/08/27 06:03:16;;;;;;;12.10;4.13;;;12.00;99.90;;;;;;5098530;28;20024;-69
2021/08/27 06:05:42;;;;;;;8.00;3.83;;;11.80;99.90;;;;;;5098287;28;20055;-69
2021/08/27 06:08:07;;;;;;;8.77;4.35;;;12.00;99.90;;;;;;5098269;28;20028;-69
2021/08/27 06:10:33;;;;;;;12.27;4.82;;;12.30;99.90;;;;;;5098359;28;20392;-69
2021/08/27 06:12:59;;;;;;;9.65;4.28;;;12.80;99.90;;;;;;5098223;28;20028;-69
2021/08/27 06:15:26;;;;;;;6.78;3.85;;;12.90;99.90;;;;;;5098303;28;20028;-69
2021/08/27 06:17:52;;;;;;;9.10;3.97;;;12.60;99.90;;;;;;5098112;28;20051;-69
2021/08/27 06:20:18;;;;;;;6.72;3.65;;;12.60;99.90;;;;;;5097917;28;20070;-69
2021/08/27 06:22:44;;;;;;;9.20;3.38;;;13.00;99.90;;;;;;5098202;28;20496;-69
2021/08/27 06:25:10;;;;;;;6.88;3.50;;;13.30;99.90;;;;;;5097986;28;20020;-70
2021/08/27 06:27:36;;;;;;;5.60;3.80;;;13.20;99.90;;;;;;5097886;28;20027;-70
2021/08/27 06:30:04;;;;;;;10.30;3.97;;;13.50;99.90;;;;;;5098082;28;20531;-70
2021/08/27 06:32:29;;;;;;;10.43;3.78;;;13.50;99.90;;;;;;5097616;28;20081;-69
2021/08/27 06:34:55;;;;;;;8.52;4.05;;;13.90;99.90;;;;;;5097643;28;20032;-70
2021/08/27 06:38:20;;;;;;;5.47;3.20;;;14.00;99.90;;;;;;5097498;28;20031;-70
2021/08/27 06:40:09;;;;;;;8.95;3.67;;;14.20;99.90;;;;;;5097475;28;20035;-70
2021/08/27 06:42:35;;;;;;;10.55;4.15;;;14.40;99.90;;;;;;5097519;28;20024;-70
2021/08/27 06:45:01;;;;;;;7.43;3.20;;;14.80;99.90;;;;;;5097782;28;20375;-70
2021/08/27 06:47:27;;;;;;;9.27;3.40;;;15.00;99.90;;;;;;5097403;28;20028;-69
2021/08/27 06:49:53;;;;;;;6.85;2.85;;;15.10;99.90;;;;;;5097397;28;20557;-69
2021/08/27 06:52:18;;;;;;;8.38;3.42;;;15.40;99.90;;;;;;5097388;28;20031;-70
2021/08/27 06:54:44;;;;;;;11.82;3.03;;;15.70;99.90;;;;;;5097665;28;20055;-70
2021/08/27 06:57:10;;;;;;;11.68;4.05;;;15.90;99.90;;;;;;5097303;28;20077;-70
2021/08/27 06:59:36;;;;;;;6.25;3.13;;;16.10;99.90;;;;;;5097415;28;20020;-70
2021/08/27 07:02:02;;;;;;;11.82;3.97;;;16.30;99.90;;;;;;5097197;28;20384;-69
2021/08/27 07:04:30;;;;;;;14.07;3.78;;;16.30;99.90;;;;;;5097092;28;20073;-69
2021/08/27 07:06:56;;;;;;;5.20;2.88;;;16.60;99.90;;;;;;5096525;28;20016;-69
2021/08/27 07:09:22;;;;;;;8.75;3.47;;;16.70;99.90;;;;;;5097245;28;20016;-70
2021/08/27 07:11:48;;;;;;;8.18;3.25;;;16.80;99.90;;;;;;5096924;28;20020;-70
2021/08/27 07:14:15;;;;;;;8.73;3.88;;;17.00;99.90;;;;;;5097398;28;20108;-70
2021/08/27 07:16:41;;;;;;;8.60;3.33;;;17.70;99.90;;;;;;5097075;28;20024;-69
2021/08/27 07:19:07;;;;;;;4.75;2.40;;;17.00;99.90;;;;;;5097209;28;20076;-70
2021/08/27 07:21:33;;;;;;;10.25;3.35;;;17.10;99.90;;;;;;5096647;28;20514;-69
2021/08/27 07:23:59;;;;;;;9.48;3.42;;;17.30;99.90;;;;;;5096929;28;20024;-69
2021/08/27 07:26:25;;;;;;;6.22;2.90;;;17.30;99.90;;;;;;5096814;28;20488;-70
2021/08/27 07:28:51;;;;;;;4.10;2.58;;;17.40;99.90;;;;;;5097016;28;20032;-70
2021/08/27 07:31:16;;;;;;;5.40;2.80;;;17.50;99.90;;;;;;5096603;28;20024;-70
2021/08/27 07:33:42;;;;;;;5.85;2.90;;;17.60;99.90;;;;;;5097116;28;20124;-70
2021/08/27 07:36:08;;;;;;;7.60;2.80;;;17.60;99.90;;;;;;5096288;28;20024;-69
2021/08/27 07:38:34;;;;;;;4.53;2.42;;;17.70;99.90;;;;;;5096672;28;20050;-69
2021/08/27 07:41:00;;;;;;;9.80;2.95;;;17.90;99.90;;;;;;5096582;28;20027;-70
2021/08/27 07:43:26;;;;;;;7.95;3.08;;;18.00;99.90;;;;;;5096634;28;20476;-69
2021/08/27 07:45:57;;;;;;;12.50;2.88;;;18.30;99.90;;;;;;5096553;28;20016;-70
2021/08/27 07:48:25;;;;;;;6.50;2.20;;;18.10;99.90;;;;;;5096841;28;20039;-69
2021/08/27 07:50:51;;;;;;;6.63;2.47;;;18.20;99.90;;;;;;5096262;28;20043;-70
2021/08/27 07:53:17;;;;;;;7.00;2.28;;;18.40;99.90;;;;;;5096606;28;20096;-69
2021/08/27 07:55:42;;;;;;;4.00;2.00;;;18.40;99.90;;;;;;5096679;28;20070;-69
2021/08/27 07:58:09;;;;;;;10.05;2.80;;;18.50;99.90;;;;;;5096406;28;20041;-70
2021/08/27 08:00:36;;;;;;;5.60;2.25;;;18.60;99.90;;;;;;5096589;28;20097;-70
2021/08/27 08:03:02;;;;;;;9.73;2.85;;;18.70;99.90;;;;;;5096628;28;20028;-69
2021/08/27 08:05:28;;;;;;;12.73;3.55;;;18.70;99.90;;;;;;5096278;28;20062;-69
2021/08/27 08:07:54;;;;;;;7.25;2.63;;;18.90;99.90;;;;;;5096650;28;20020;-69
2021/08/27 08:10:20;;;;;;;7.18;2.58;;;19.00;99.90;;;;;;5096375;28;20031;-69
2021/08/27 08:12:46;;;;;;;5.40;2.45;;;19.40;99.90;;;;;;5096477;28;20149;-69
2021/08/27 08:15:12;;;;;;;5.43;2.17;;;19.60;99.90;;;;;;5096747;28;20060;-69
2021/08/27 08:17:38;;;;;;;7.18;2.70;;;20.00;99.90;;;;;;5097929;28;20024;-69
2021/08/27 08:20:05;;;;;;;11.65;2.72;;;;;;;;;;5100247;28;20036;-69
2021/08/27 08:22:31;;;;;;;8.05;2.90;;;20.70;99.90;;;;;;5100417;28;20046;-69
2021/08/27 08:24:56;;;;;;;7.28;2.70;;;21.40;99.90;;;;;;5100356;28;20111;-70
2021/08/27 08:27:22;;;;;;;6.45;2.42;;;21.50;99.90;;;;;;5100409;28;20106;-69
2021/08/27 08:29:48;;;;;;;6.25;2.15;;;21.60;99.90;;;;;;5100123;28;20081;-70
2021/08/27 08:32:14;;;;;;;5.32;2.13;;;21.90;99.90;;;;;;5100221;28;20031;-70
2021/08/27 08:34:40;;;;;;;4.85;1.73;;;22.20;99.90;;;;;;5099739;28;20049;-70
2021/08/27 08:37:07;;;;;;;5.70;2.05;;;22.60;99.90;;;;;;5100127;28;20074;-70
2021/08/27 08:39:35;;;;;;;5.75;1.95;;;23.00;99.90;;;;;;5099772;28;20032;-70
2021/08/27 08:42:01;;;;;;;3.72;1.85;;;23.60;99.90;;;;;;5100066;28;20047;-70
2021/08/27 08:44:27;;;;;;;5.13;1.92;;;24.10;99.90;;;;;;5099869;28;20020;-69
2021/08/27 08:46:55;;;;;;;4.85;2.35;;;24.40;99.90;;;;;;5099940;28;20602;-70
2021/08/27 08:49:25;;;;;;;4.03;1.60;;;24.60;97.70;;;;;;5099392;28;20019;-69
2021/08/27 08:51:52;;;;;;;5.53;2.20;;;24.70;97.30;;;;;;5099807;28;20076;-70
2021/08/27 08:54:18;;;;;;;4.82;1.73;;;24.80;95.50;;;;;;5099766;28;20021;-69
2021/08/27 08:56:45;;;;;;;6.63;2.20;;;25.00;95.80;;;;;;5099746;28;20458;-70
2021/08/27 08:59:11;;;;;;;7.03;2.10;;;25.20;94.20;;;;;;5099869;28;20032;-69
2021/08/27 09:01:37;;;;;;;6.57;2.55;;;25.10;93.00;;;;;;5099613;28;20028;-69
2021/08/27 09:04:04;;;;;;;5.72;2.45;;;25.10;92.40;;;;;;5099701;28;20024;-69
2021/08/27 09:06:30;;;;;;;4.38;1.70;;;25.20;92.10;;;;;;5099206;28;20024;-69
2021/08/27 09:09:00;;;;;;;5.03;2.00;;;25.30;91.90;;;;;;5099560;28;20027;-69
2021/08/27 09:11:27;;;;;;;7.10;2.30;;;25.30;91.60;;;;;;5099242;28;20027;-69
2021/08/27 09:13:59;;;;;;;5.47;1.83;;;25.60;92.00;;;;;;5099547;28;20030;-69
2021/08/27 09:16:27;;;;;;;4.63;1.90;;;26.00;91.80;;;;;;5099251;28;20073;-69
2021/08/27 09:18:54;;;;;;;5.22;2.15;;;26.30;93.00;;;;;;5099471;28;20415;-69
2021/08/27 09:21:48;;;;;;;4.82;1.95;;;26.30;92.70;;;;;;5098821;28;20099;-69
2021/08/27 09:24:22;;;;;;;5.68;2.20;;;26.40;92.50;;;;;;5099340;28;20024;-69
2021/08/27 09:26:51;;;;;;;4.47;2.08;;;25.50;91.10;;;;;;5099339;28;20047;-69
2021/08/27 09:29:49;;;;;;;4.95;1.88;;;24.90;90.90;;;;;;5098477;28;20516;-69
2021/08/27 09:32:28;;;;;;;5.13;1.77;;;24.40;90.60;;;;;;5072384;28;20039;-69
2021/08/27 09:35:15;;;;;;;4.57;1.45;;;23.80;91.10;;;;;;5086180;28;20035;-69
2021/08/27 09:37:49;;;;;;;4.03;2.13;;;23.40;92.10;;;;;;5098878;28;20488;-69
2021/08/27 09:40:21;;;;;;;7.15;2.55;;;23.10;92.80;;;;;;5098822;28;20483;-69
2021/08/27 09:42:50;;;;;;;5.47;2.03;;;23.10;93.20;;;;;;5098742;28;20388;-69
2021/08/27 09:45:19;;;;;;;7.88;2.70;;;23.30;93.90;;;;;;5099062;28;20055;-69
2021/08/27 09:47:58;;;;;;;4.85;2.22;;;23.60;92.20;;;;;;5098796;28;20020;-69
2021/08/27 09:50:26;;;;;;;7.63;2.75;;;24.20;92.30;;;;;;5098317;28;20102;-69
2021/08/27 09:52:57;;;;;;;7.47;2.08;;;25.50;90.80;;;;;;5098743;28;20073;-69
2021/08/27 09:55:24;;;;;;;8.85;2.38;;;;;;;;;;5098447;28;20036;-69
2021/08/27 09:57:50;;;;;;;5.95;2.08;;;;;;;;;;5098325;28;20040;-69
2021/08/27 10:00:23;;;;;;;4.15;1.80;;;;;;;;;;5098432;28;20095;-69
2021/08/27 10:02:49;;;;;;;6.95;1.98;;;27.60;99.00;;;;;;5098584;28;20031;-69
2021/08/27 10:05:18;;;;;;;3.40;1.67;;;;;;;;;;5098104;28;20024;-69
2021/08/27 10:07:45;;;;;;;4.85;1.67;;;28.10;99.90;;;;;;5098559;28;20031;-69
2021/08/27 10:10:14;;;;;;;5.70;1.88;;;29.00;79.90;;;;;;5098267;28;20023;-69
2021/08/27 10:12:43;;;;;;;6.68;1.60;;;29.10;81.40;;;;;;5098371;28;20032;-69
2021/08/27 10:15:11;;;;;;;5.45;1.90;;;29.10;81.50;;;;;;5098638;28;20020;-69
2021/08/27 10:17:40;;;;;;;6.30;2.10;;;29.50;77.80;;;;;;5098096;28;20069;-69
2021/08/27 10:20:08;;;;;;;2.22;1.13;;;29.90;76.90;;;;;;5097968;28;20028;-69
2021/08/27 10:22:41;;;;;;;6.88;1.63;;;29.80;78.60;;;;;;5098284;28;20027;-69
2021/08/27 10:25:10;;;;;;;3.42;1.52;;;30.80;79.20;;;;;;5098119;28;20071;-69
2021/08/27 10:27:38;;;;;;;5.18;2.08;;;31.20;75.00;;;;;;5097755;28;20069;-69
2021/08/27 10:30:06;;;;;;;5.72;2.05;;;32.40;74.50;;;;;;5098090;28;20566;-69
2021/08/27 10:32:41;;;;;;;4.68;1.63;;;32.60;71.40;;;;;;5097501;28;20087;-69
2021/08/27 10:35:11;;;;;;;3.83;1.85;;;32.90;71.90;;;;;;5097600;28;20054;-69
2021/08/27 10:37:44;;;;;;;5.88;1.83;;;32.70;70.70;;;;;;5097608;28;20127;-69
2021/08/27 10:40:37;;;;;;;4.35;1.80;;;29.90;71.70;;;;;;5097797;28;20506;-69
2021/08/27 10:43:03;;;;;;;6.82;1.80;;;29.00;74.60;;;;;;5095819;28;20043;-69
2021/08/27 10:45:38;;;;;;;6.50;1.92;;;29.00;75.40;;;;;;5097574;28;20484;-69
2021/08/27 10:48:14;;;;;;;4.05;1.58;;;28.80;72.70;;;;;;5097542;28;20601;-69
2021/08/27 10:50:42;;;;;;;5.68;1.80;;;28.10;73.90;;;;;;5097519;28;20032;-69
2021/08/27 10:53:30;;;;;;;4.63;1.75;;;28.10;74.50;;;;;;5097442;28;20507;-68
2021/08/27 10:55:59;;;;;;;6.13;2.25;;;27.40;76.40;;;;;;5097601;28;20028;-69
2021/08/27 10:58:46;;;;;;;3.17;1.67;;;26.90;75.90;;;;;;5097044;28;20051;-69
2021/08/27 11:01:33;;;;;;;4.78;2.00;;;27.40;75.60;;;;;;5097644;28;20055;-69
2021/08/27 11:04:07;;;;;;;7.15;2.13;;;27.50;75.50;;;;;;5097415;28;20016;-69
2021/08/27 11:06:50;;;;;;;6.20;2.38;;;27.40;76.30;;;;;;5097074;28;20081;-69
2021/08/27 11:09:27;;;;;;;6.57;2.10;;;27.20;77.00;;;;;;5097261;28;20020;-68
2021/08/27 11:12:05;;;;;;;4.85;1.80;;;;;;;;;;5096896;28;20395;-68
2021/08/27 11:14:31;;;;;;;4.03;1.98;;;30.00;93.60;;;;;;5097051;28;20020;-68
2021/08/27 11:17:02;;;;;;;5.47;1.45;;;30.00;73.00;;;;;;5097175;28;20031;-69
2021/08/27 11:19:30;;;;;;;5.38;1.65;;;;;;;;;;5096879;28;20154;-69
2021/08/27 11:22:11;;;;;;;5.28;1.50;;;31.80;82.70;;;;;;5097098;28;20024;-69
2021/08/27 11:24:38;;;;;;;6.82;1.95;;;32.50;89.50;;;;;;5096674;28;20059;-69
2021/08/27 11:27:06;;;;;;;4.82;1.95;;;32.10;91.20;;;;;;5096849;28;20322;-68
2021/08/27 11:29:42;;;;;;;4.13;1.67;;;32.00;91.80;;;;;;5096806;28;20034;-69
2021/08/27 11:32:17;;;;;;;3.40;1.88;;;31.80;90.40;;;;;;5096814;28;20024;-69
2021/08/27 11:34:57;;;;;;;2.72;1.50;;;30.50;68.60;;;;;;5096904;28;20028;-68
2021/08/27 11:37:32;;;;;;;3.30;1.25;;;30.80;69.20;;;;;;5096554;28;20039;-68
2021/08/27 11:39:58;;;;;;;;;;;31.60;70.30;;;;;;5097314;28;20034;-69
2021/08/27 11:42:24;;;;;;;4.43;1.45;;;32.50;72.00;;;;;;5096784;28;19904;-69
2021/08/27 11:45:11;;;;;;;3.58;1.67;;;33.30;66.80;;;;;;5096987;28;20081;-69
2021/08/27 11:47:44;;;;;;;3.50;1.60;;;33.50;63.60;;;;;;5096770;28;20012;-69
2021/08/27 11:50:27;;;;;;;6.38;1.52;;;32.40;63.90;;;;;;5096758;28;20060;-69
2021/08/27 11:52:57;;;;;;;3.47;1.75;;;30.80;66.10;;;;;;5098731;28;20496;-69
2021/08/27 11:55:23;;;;;;;3.88;1.83;;;30.10;67.30;;;;;;5100737;28;20024;-69
2021/08/27 11:57:57;;;;;;;4.13;1.80;;;29.00;66.50;;;;;;5100667;28;20105;-69
2021/08/27 12:00:36;;;;;;;5.57;1.90;;;28.90;68.00;;;;;;5100788;28;20046;-68
2021/08/27 12:03:03;;;;;;;4.32;1.95;;;;;;;;;;5101022;28;20024;-69
2021/08/27 12:05:29;;;;;;;7.07;2.20;;;28.10;82.10;;;;;;5100281;28;20016;-68
2021/08/27 12:08:09;;;;;;;4.68;1.98;;;27.30;70.30;;;;;;5100928;28;20031;-68
2021/08/27 12:10:37;;;;;;;4.53;1.95;;;26.50;73.30;;;;;;5100826;28;20088;-69
2021/08/27 12:13:10;;;;;;;7.40;2.50;;;27.00;74.80;;;;;;5100301;28;20059;-68
2021/08/27 12:15:40;;;;;;;4.18;1.38;;;28.60;73.70;;;;;;5100856;28;20032;-68
2021/08/27 12:18:34;;;;;;;3.83;2.13;;;30.50;73.10;;;;;;5100325;28;20020;-69
2021/08/27 12:21:00;;;;;;;3.80;1.70;;;33.10;64.60;;;;;;5100148;28;20383;-68
2021/08/27 12:23:26;;;;;;;4.80;2.22;;;33.10;66.20;;;;;;5100173;28;20020;-69
2021/08/27 12:25:59;;;;;;;3.45;1.55;;;31.70;63.20;;;;;;5100552;28;20032;-68
2021/08/27 12:28:38;;;;;;;4.95;1.83;;;29.70;67.10;;;;;;5087551;28;20064;-68
2021/08/27 12:31:04;;;;;;;5.22;1.80;;;28.40;69.50;;;;;;5100199;28;20389;-68
2021/08/27 12:33:36;;;;;;;5.03;1.73;;;27.60;71.70;;;;;;5100078;28;20020;-68
2021/08/27 12:36:03;;;;;;;4.97;2.42;;;27.10;72.40;;;;;;5099692;28;20035;-68
2021/08/27 12:38:29;;;;;;;5.78;2.28;;;27.10;73.70;;;;;;5100066;28;20020;-68
2021/08/27 12:40:55;;;;;;;7.65;2.03;;;27.20;73.00;;;;;;5099933;28;20020;-68
2021/08/27 12:43:23;;;;;;;5.80;1.55;;;26.90;73.00;;;;;;5100068;28;20081;-68
2021/08/27 12:45:55;;;;;;;3.22;2.00;;;26.60;74.00;;;;;;5099786;28;20016;-68
2021/08/27 12:48:29;;;;;;;3.88;1.83;;;26.50;74.40;;;;;;5099947;28;20520;-68
2021/08/27 12:51:04;;;;;;;7.05;1.92;;;26.10;74.10;;;;;;5099497;28;20020;-68
2021/08/27 12:53:39;;;;;;;5.50;2.00;;;25.40;76.20;;;;;;5099782;28;20134;-68
2021/08/27 12:56:20;;;;;;;5.03;1.67;;;25.30;77.00;;;;;;5099869;28;20024;-68
2021/08/27 12:58:51;;;;;;;4.55;2.10;;;25.20;77.60;;;;;;5099490;28;20036;-68
2021/08/27 13:01:25;;;;;;;5.25;2.28;;;25.50;78.90;;;;;;5099724;28;20028;-68